createdAt,value
2023-03-04T00:02:17.241Z,1.39
2023-03-04T00:04:48.910Z,1.33
2023-03-04T00:07:20.677Z,1.29
2023-03-04T00:09:52.215Z,1.24
2023-03-04T00:12:23.719Z,1.23
2023-03-04T00:14:55.327Z,1.27
2023-03-04T00:17:26.892Z,1.28
2023-03-04T00:19:59.986Z,1.27
2023-03-04T00:22:31.491Z,1.29
2023-03-04T00:25:03.022Z,1.22
2023-03-04T00:27:34.814Z,1.23
2023-03-04T00:30:07.616Z,1.22
2023-03-04T00:32:39.418Z,1.21
2023-03-04T00:35:11.005Z,1.19
2023-03-04T00:37:42.658Z,1.19
2023-03-04T00:40:14.361Z,1.18
2023-03-04T00:42:45.956Z,1.15
2023-03-04T00:45:17.483Z,1.06
2023-03-04T00:47:49.127Z,1.11
2023-03-04T00:50:20.979Z,1.14
2023-03-04T00:52:52.551Z,1.17
2023-03-04T00:55:24.054Z,1.19
2023-03-04T00:57:55.630Z,1.14
2023-03-04T01:00:27.237Z,1.14
2023-03-04T01:02:58.861Z,1.07
2023-03-04T01:05:30.343Z,1.08
2023-03-04T01:08:02.904Z,1.09
2023-03-04T01:10:34.461Z,1.04
2023-03-04T01:13:06.280Z,1.04
2023-03-04T01:15:37.780Z,1.00
2023-03-04T01:18:09.625Z,1.01
2023-03-04T01:20:41.165Z,1.00
2023-03-04T01:23:12.863Z,0.98
2023-03-04T01:25:44.326Z,0.90
2023-03-04T01:28:15.924Z,0.91
2023-03-04T01:30:47.684Z,0.94
2023-03-04T01:33:19.345Z,0.87
2023-03-04T01:35:50.924Z,0.93
2023-03-04T01:38:22.637Z,0.92
2023-03-04T01:40:54.457Z,0.94
2023-03-04T01:43:28.801Z,0.94
2023-03-04T01:46:00.476Z,0.94
2023-03-04T01:48:37.013Z,0.96
2023-03-04T01:51:14.306Z,0.97
2023-03-04T01:53:53.416Z,0.94
2023-03-04T01:56:29.537Z,0.88
2023-03-04T01:59:08.005Z,0.91
2023-03-04T02:01:41.123Z,0.90
2023-03-04T02:04:13.974Z,0.92
2023-03-04T02:06:46.857Z,0.91
2023-03-04T02:09:19.350Z,0.90
2023-03-04T02:11:52.016Z,0.87
2023-03-04T02:14:23.707Z,0.85
2023-03-04T02:16:55.259Z,0.82
2023-03-04T02:19:36.966Z,0.76
2023-03-04T02:22:08.638Z,0.71
2023-03-04T02:24:50.585Z,0.71
2023-03-04T02:27:22.297Z,0.73
2023-03-04T02:29:53.814Z,0.77
2023-03-04T02:32:25.478Z,0.75
2023-03-04T02:34:57.045Z,0.74
2023-03-04T02:37:28.639Z,0.77
2023-03-04T02:40:00.252Z,0.69
2023-03-04T02:42:31.805Z,0.69
2023-03-04T02:45:05.811Z,0.61
2023-03-04T02:47:37.735Z,0.60
2023-03-04T02:50:10.091Z,0.53
2023-03-04T02:52:41.442Z,0.51
2023-03-04T02:55:12.953Z,0.49
2023-03-04T02:57:46.582Z,0.48
2023-03-04T03:00:18.149Z,0.48
2023-03-04T03:02:49.705Z,0.44
2023-03-04T03:05:21.222Z,0.40
2023-03-04T03:07:52.837Z,0.36
2023-03-04T03:10:25.123Z,0.38
2023-03-04T03:12:56.688Z,0.43
2023-03-04T03:15:28.361Z,0.38
2023-03-04T03:17:59.916Z,0.35
2023-03-04T03:20:31.693Z,0.35
2023-03-04T03:23:04.396Z,0.32
2023-03-04T03:25:35.990Z,0.30
2023-03-04T03:28:07.573Z,0.21
2023-03-04T03:30:39.215Z,0.24
2023-03-04T03:33:10.737Z,0.30
2023-03-04T03:35:42.245Z,0.28
2023-03-04T03:38:14.811Z,0.33
2023-03-04T03:40:46.847Z,0.33
2023-03-04T03:43:18.415Z,0.36
2023-03-04T03:45:51.873Z,0.34
2023-03-04T03:48:23.724Z,0.31
2023-03-04T03:50:55.246Z,0.19
2023-03-04T03:53:26.723Z,0.15
2023-03-04T03:55:59.057Z,0.14
2023-03-04T03:58:30.531Z,0.13
2023-03-04T04:01:02.067Z,0.13
2023-03-04T04:03:33.615Z,0.13
2023-03-04T04:06:05.516Z,0.14
2023-03-04T04:08:37.062Z,0.14
2023-03-04T04:11:10.585Z,0.12
2023-03-04T04:13:42.148Z,0.07
2023-03-04T04:16:13.877Z,-0.13
2023-03-04T04:18:45.506Z,-0.18
2023-03-04T04:21:17.298Z,-0.18
2023-03-04T04:23:48.912Z,-0.19
2023-03-04T04:26:20.483Z,-0.19
2023-03-04T04:28:52.063Z,-0.20
2023-03-04T04:31:23.729Z,-0.23
2023-03-04T04:33:55.230Z,-0.21
2023-03-04T04:36:27.334Z,-0.18
2023-03-04T04:38:58.998Z,-0.20
2023-03-04T04:41:36.677Z,-0.21
2023-03-04T04:44:10.179Z,-0.17
2023-03-04T04:46:42.637Z,-0.21
2023-03-04T04:49:14.508Z,-0.25
2023-03-04T04:51:46.404Z,-0.32
2023-03-04T04:54:17.904Z,-0.34
2023-03-04T04:56:49.438Z,-0.37
2023-03-04T04:59:21.365Z,-0.40
2023-03-04T05:01:52.857Z,-0.43
2023-03-04T05:04:24.419Z,-0.41
2023-03-04T05:06:55.901Z,-0.39
2023-03-04T05:09:27.367Z,-0.42
2023-03-04T05:11:59.094Z,-0.42
2023-03-04T05:14:30.626Z,-0.60
2023-03-04T05:17:02.128Z,-0.57
2023-03-04T05:19:34.592Z,-0.69
2023-03-04T05:22:06.123Z,-0.68
2023-03-04T05:24:37.635Z,-0.79
2023-03-04T05:27:09.149Z,-0.85
2023-03-04T05:29:40.618Z,-0.89
2023-03-04T05:32:12.487Z,-0.89
2023-03-04T05:34:44.064Z,-0.84
2023-03-04T05:37:15.576Z,-0.80
2023-03-04T05:39:47.004Z,-0.82
2023-03-04T05:42:18.552Z,-0.84
2023-03-04T05:44:50.042Z,-0.81
2023-03-04T05:47:21.505Z,-0.84
2023-03-04T05:49:53.047Z,-0.91
2023-03-04T05:52:24.635Z,-1.08
2023-03-04T05:54:56.174Z,-1.07
2023-03-04T05:57:27.688Z,-1.03
2023-03-04T05:59:59.166Z,-1.00
2023-03-04T06:02:30.744Z,-0.98
2023-03-04T06:05:03.113Z,-0.91
2023-03-04T06:07:35.122Z,-0.86
2023-03-04T06:10:07.748Z,-0.80
2023-03-04T06:12:40.717Z,-0.73
2023-03-04T06:15:14.102Z,-0.71
2023-03-04T06:17:46.713Z,-0.71
2023-03-04T06:20:18.490Z,-0.71
2023-03-04T06:22:50.409Z,-0.75
2023-03-04T06:25:22.169Z,-0.74
2023-03-04T06:27:55.325Z,-0.74
2023-03-04T06:30:27.363Z,-0.73
2023-03-04T06:32:59.281Z,-0.72
2023-03-04T06:35:32.215Z,-0.68
2023-03-04T06:38:03.861Z,-0.66
2023-03-04T06:40:35.730Z,-0.64
2023-03-04T06:43:07.593Z,-0.63
2023-03-04T06:45:39.422Z,-0.60
2023-03-04T06:48:12.009Z,-0.53
2023-03-04T06:50:43.649Z,-0.44
2023-03-04T06:53:15.421Z,-0.35
2023-03-04T06:55:48.043Z,-0.26
2023-03-04T06:58:19.605Z,-0.17
2023-03-04T07:00:51.460Z,-0.04
2023-03-04T07:03:23.606Z,0.06
2023-03-04T07:05:55.198Z,0.17
2023-03-04T07:08:27.097Z,0.33
2023-03-04T07:10:58.612Z,0.45
2023-03-04T07:13:30.183Z,0.53
2023-03-04T07:16:01.943Z,0.49
2023-03-04T07:18:34.458Z,0.60
2023-03-04T07:21:07.297Z,0.65
2023-03-04T07:23:39.352Z,0.68
2023-03-04T07:26:11.177Z,0.62
2023-03-04T07:28:43.533Z,0.65
2023-03-04T07:31:23.030Z,0.75
2023-03-04T07:34:00.281Z,0.82
2023-03-04T07:36:39.099Z,0.89
2023-03-04T07:39:13.405Z,0.94
2023-03-04T07:41:44.912Z,0.96
2023-03-04T07:44:16.458Z,0.95
2023-03-04T07:46:47.950Z,1.02
2023-03-04T07:49:19.497Z,0.96
2023-03-04T07:51:51.019Z,1.09
2023-03-04T07:54:22.709Z,1.09
2023-03-04T07:56:54.417Z,1.07
2023-03-04T07:59:25.949Z,1.07
2023-03-04T08:01:57.453Z,1.19
2023-03-04T08:04:29.004Z,1.24
2023-03-04T08:07:00.545Z,1.31
2023-03-04T08:09:32.091Z,1.22
2023-03-04T08:12:03.826Z,1.39
2023-03-04T08:14:35.652Z,1.27
2023-03-04T08:17:07.370Z,1.26
2023-03-04T08:19:38.932Z,1.30
2023-03-04T08:22:10.569Z,1.43
2023-03-04T08:24:42.079Z,1.48
2023-03-04T08:27:13.639Z,1.54
2023-03-04T08:29:45.103Z,1.58
2023-03-04T08:32:16.811Z,1.67
2023-03-04T08:34:48.417Z,1.71
2023-03-04T08:37:19.884Z,1.74
2023-03-04T08:39:51.497Z,1.69
2023-03-04T08:42:24.138Z,1.66
2023-03-04T08:44:55.667Z,1.58
2023-03-04T08:47:27.100Z,1.61
2023-03-04T08:49:58.651Z,1.70
2023-03-04T08:52:30.786Z,1.79
2023-03-04T08:55:02.706Z,1.85
2023-03-04T08:57:34.184Z,1.87
2023-03-04T09:00:06.403Z,1.75
2023-03-04T09:02:37.931Z,1.89
2023-03-04T09:05:09.772Z,1.95
2023-03-04T09:07:41.284Z,2.10
2023-03-04T09:10:13.268Z,2.16
2023-03-04T09:12:44.886Z,2.27
2023-03-04T09:15:16.554Z,2.30
2023-03-04T09:17:48.089Z,2.36
2023-03-04T09:20:23.277Z,2.42
2023-03-04T09:22:54.910Z,2.51
2023-03-04T09:25:26.427Z,2.57
2023-03-04T09:27:58.142Z,2.64
2023-03-04T09:30:30.400Z,2.75
2023-03-04T09:33:02.062Z,2.82
2023-03-04T09:35:33.761Z,2.84
2023-03-04T09:38:06.117Z,3.05
2023-03-04T09:40:43.238Z,3.24
2023-03-04T09:43:33.739Z,3.40
2023-03-04T09:46:11.512Z,3.60
2023-03-04T09:48:50.801Z,3.61
2023-03-04T09:51:25.506Z,3.76
2023-03-04T09:54:27.258Z,3.81
2023-03-04T09:57:17.244Z,3.90
2023-03-04T10:00:00.903Z,4.07
2023-03-04T10:02:41.063Z,4.11
2023-03-04T10:05:20.774Z,4.21
2023-03-04T10:08:05.451Z,4.35
2023-03-04T10:10:44.163Z,4.50
2023-03-04T10:13:23.366Z,4.40
2023-03-04T10:15:57.032Z,4.46
2023-03-04T10:18:43.850Z,4.55
2023-03-04T10:21:32.360Z,4.79
2023-03-04T10:24:13.567Z,4.97
2023-03-04T10:26:49.422Z,5.13
2023-03-04T10:29:24.353Z,5.32
2023-03-04T10:31:56.523Z,5.17
2023-03-04T10:34:28.217Z,5.35
2023-03-04T10:37:05.619Z,5.34
2023-03-04T10:39:55.202Z,5.37
2023-03-04T10:42:30.266Z,5.45
2023-03-04T10:45:01.820Z,5.48
2023-03-04T10:47:34.613Z,5.52
2023-03-04T10:50:06.762Z,5.57
2023-03-04T10:52:38.217Z,5.65
2023-03-04T10:55:41.868Z,5.77
2023-03-04T10:58:18.799Z,5.97
2023-03-04T11:01:03.767Z,5.86
2023-03-04T11:03:37.270Z,5.68
2023-03-04T11:06:21.100Z,5.64
2023-03-04T11:09:01.079Z,5.77
2023-03-04T11:11:44.767Z,6.07
2023-03-04T11:14:30.394Z,6.09
2023-03-04T11:17:45.606Z,6.14
2023-03-04T11:20:33.900Z,6.10
2023-03-04T11:23:20.016Z,6.08
2023-03-04T11:26:13.539Z,6.21
2023-03-04T11:28:58.319Z,6.37
2023-03-04T11:31:48.946Z,6.59
2023-03-04T11:34:26.755Z,6.57
2023-03-04T11:37:08.282Z,6.59
2023-03-04T11:39:46.305Z,6.88
2023-03-04T11:42:25.076Z,6.83
2023-03-04T11:44:56.991Z,6.91
2023-03-04T11:47:56.836Z,7.04
2023-03-04T11:50:57.100Z,7.38
2023-03-04T11:54:11.580Z,7.17
2023-03-04T11:56:52.201Z,6.86
2023-03-04T12:00:00.865Z,7.54
2023-03-04T12:02:41.377Z,6.98
2023-03-04T12:05:38.723Z,7.26
2023-03-04T12:08:26.535Z,7.51
2023-03-04T12:11:08.129Z,7.76
2023-03-04T12:14:21.544Z,8.07
2023-03-04T12:17:14.831Z,8.02
2023-03-04T12:20:01.892Z,8.10
2023-03-04T12:22:48.455Z,7.58
2023-03-04T12:25:44.406Z,7.93
2023-03-04T12:28:52.192Z,8.22
2023-03-04T12:31:34.930Z,8.25
2023-03-04T12:34:43.554Z,8.66
2023-03-04T12:37:30.340Z,8.59
2023-03-04T12:40:23.328Z,8.70
2023-03-04T12:43:22.090Z,8.76
2023-03-04T12:46:11.742Z,8.43
2023-03-04T12:48:56.839Z,8.48
2023-03-04T12:51:40.863Z,8.39
2023-03-04T12:54:26.000Z,9.23
2023-03-04T12:57:03.479Z,8.67
2023-03-04T12:59:59.254Z,8.67
2023-03-04T13:02:42.731Z,9.97
2023-03-04T13:05:24.475Z,10.78
2023-03-04T13:07:59.686Z,11.01
2023-03-04T13:10:31.613Z,10.17
2023-03-04T13:13:04.211Z,10.00
2023-03-04T13:15:38.276Z,9.67
2023-03-04T13:18:31.375Z,11.39
2023-03-04T13:21:07.793Z,11.08
2023-03-04T13:23:39.886Z,12.71
2023-03-04T13:26:18.277Z,14.17
2023-03-04T13:28:55.281Z,14.10
2023-03-04T13:31:27.091Z,14.83
2023-03-04T13:34:00.290Z,14.70
2023-03-04T13:36:54.895Z,14.93
2023-03-04T13:39:28.561Z,16.66
2023-03-04T13:42:00.972Z,16.37
2023-03-04T13:44:56.875Z,16.16
2023-03-04T13:47:48.893Z,16.35
2023-03-04T13:50:34.069Z,15.18
2023-03-04T13:53:30.613Z,15.87
2023-03-04T13:56:07.061Z,16.33
2023-03-04T13:58:39.635Z,15.82
2023-03-04T14:01:25.444Z,16.07
2023-03-04T14:03:57.446Z,15.88
2023-03-04T14:06:31.300Z,15.78
2023-03-04T14:09:16.552Z,15.90
2023-03-04T14:11:49.847Z,15.79
2023-03-04T14:14:24.550Z,14.81
2023-03-04T14:17:02.777Z,12.73
2023-03-04T14:19:43.060Z,11.81
2023-03-04T14:22:20.464Z,11.52
2023-03-04T14:25:19.955Z,10.69
2023-03-04T14:28:05.599Z,9.96
2023-03-04T14:30:43.601Z,9.96
2023-03-04T14:33:19.568Z,9.67
2023-03-04T14:35:53.577Z,9.39
2023-03-04T14:38:31.198Z,9.43
2023-03-04T14:41:10.728Z,8.75
2023-03-04T14:44:04.075Z,8.69
2023-03-04T14:47:00.553Z,8.45
2023-03-04T14:49:39.475Z,8.97
2023-03-04T14:52:40.107Z,9.94
2023-03-04T14:55:14.860Z,10.99
2023-03-04T14:58:08.194Z,11.94
2023-03-04T15:00:43.190Z,12.66
2023-03-04T15:03:19.319Z,12.30
2023-03-04T15:05:55.074Z,11.57
2023-03-04T15:08:35.664Z,11.51
2023-03-04T15:11:08.417Z,11.07
2023-03-04T15:13:41.562Z,9.77
2023-03-04T15:16:14.892Z,9.54
2023-03-04T15:18:55.314Z,9.53
2023-03-04T15:21:31.722Z,9.05
2023-03-04T15:24:04.741Z,9.44
2023-03-04T15:26:41.013Z,9.58
2023-03-04T15:29:18.064Z,10.45
2023-03-04T15:31:49.635Z,10.13
2023-03-04T15:34:21.316Z,10.13
2023-03-04T15:36:53.857Z,9.23
2023-03-04T15:39:27.567Z,9.83
2023-03-04T15:42:03.532Z,9.85
2023-03-04T15:44:35.078Z,9.92
2023-03-04T15:47:08.811Z,9.81
2023-03-04T15:49:42.496Z,8.55
2023-03-04T15:52:17.892Z,7.45
2023-03-04T15:54:49.671Z,6.31
2023-03-04T15:57:24.583Z,5.74
2023-03-04T15:59:56.118Z,5.42
2023-03-04T16:02:27.721Z,5.34
2023-03-04T16:04:59.565Z,4.93
2023-03-04T16:07:31.253Z,5.06
2023-03-04T16:10:08.898Z,4.84
2023-03-04T16:12:40.494Z,4.71
2023-03-04T16:15:18.761Z,4.52
2023-03-04T16:17:50.892Z,4.04
2023-03-04T16:20:27.464Z,4.00
2023-03-04T16:23:00.857Z,3.95
2023-03-04T16:25:32.449Z,3.79
2023-03-04T16:28:04.186Z,3.90
2023-03-04T16:30:35.759Z,3.64
2023-03-04T16:33:07.320Z,3.63
2023-03-04T16:35:39.523Z,3.50
2023-03-04T16:38:21.152Z,3.06
2023-03-04T16:40:53.027Z,3.07
2023-03-04T16:43:24.916Z,2.92
2023-03-04T16:45:56.459Z,2.59
2023-03-04T16:48:27.971Z,2.37
2023-03-04T16:50:59.553Z,2.53
2023-03-04T16:53:37.139Z,2.57
2023-03-04T16:56:17.046Z,2.51
2023-03-04T16:58:49.234Z,2.55
2023-03-04T17:01:23.088Z,2.67
2023-03-04T17:03:55.643Z,2.70
2023-03-04T17:06:28.154Z,2.73
2023-03-04T17:09:02.213Z,2.49
2023-03-04T17:11:34.125Z,2.63
2023-03-04T17:14:05.627Z,2.57
2023-03-04T17:16:37.266Z,2.62
2023-03-04T17:19:08.824Z,2.45
2023-03-04T17:21:40.656Z,2.58
2023-03-04T17:24:12.232Z,2.60
2023-03-04T17:26:43.798Z,2.63
2023-03-04T17:29:15.618Z,2.64
2023-03-04T17:31:47.197Z,2.54
2023-03-04T17:34:19.047Z,2.57
2023-03-04T17:36:50.657Z,2.45
2023-03-04T17:39:22.165Z,2.39
2023-03-04T17:41:53.683Z,2.33
2023-03-04T17:44:25.242Z,1.92
2023-03-04T17:46:57.614Z,1.99
2023-03-04T17:49:28.988Z,2.05
2023-03-04T17:52:02.901Z,1.68
2023-03-04T17:54:36.058Z,1.70
2023-03-04T17:57:10.047Z,1.25
2023-03-04T17:59:41.648Z,1.34
2023-03-04T18:02:16.440Z,1.15
2023-03-04T18:04:50.109Z,1.04
2023-03-04T18:07:21.693Z,1.09
2023-03-04T18:09:53.187Z,0.95
2023-03-04T18:12:24.793Z,1.02
2023-03-04T18:14:56.368Z,0.94
2023-03-04T18:17:27.940Z,0.88
2023-03-04T18:19:59.462Z,0.77
2023-03-04T18:22:31.343Z,0.64
2023-03-04T18:25:03.030Z,0.73
2023-03-04T18:27:34.563Z,0.86
2023-03-04T18:30:10.809Z,0.61
2023-03-04T18:32:51.895Z,0.55
2023-03-04T18:35:24.034Z,0.47
2023-03-04T18:37:55.550Z,0.43
2023-03-04T18:40:30.919Z,0.46
2023-03-04T18:43:04.827Z,0.38
2023-03-04T18:45:36.384Z,0.43
2023-03-04T18:48:08.379Z,0.44
2023-03-04T18:50:39.905Z,0.31
2023-03-04T18:53:11.636Z,0.33
2023-03-04T18:55:43.216Z,0.22
2023-03-04T18:58:14.723Z,0.33
2023-03-04T19:00:46.567Z,0.28
2023-03-04T19:03:18.134Z,0.16
2023-03-04T19:05:49.680Z,0.18
2023-03-04T19:08:21.218Z,0.17
2023-03-04T19:10:52.845Z,0.12
2023-03-04T19:13:24.852Z,0.07
2023-03-04T19:15:56.357Z,0.02
2023-03-04T19:18:29.125Z,0.14
2023-03-04T19:21:00.793Z,0.24
2023-03-04T19:23:32.398Z,0.31
2023-03-04T19:26:06.897Z,0.23
2023-03-04T19:28:38.407Z,0.22
2023-03-04T19:31:11.119Z,0.16
2023-03-04T19:33:43.022Z,0.27
2023-03-04T19:36:14.562Z,0.24
2023-03-04T19:38:46.936Z,0.20
2023-03-04T19:41:18.663Z,0.19
2023-03-04T19:43:50.691Z,0.31
2023-03-04T19:46:22.308Z,0.20
2023-03-04T19:48:53.961Z,0.08
2023-03-04T19:51:28.028Z,0.08
2023-03-04T19:54:00.772Z,0.13
2023-03-04T19:56:32.240Z,0.11
2023-03-04T19:59:04.882Z,0.13
2023-03-04T20:01:37.603Z,0.18
2023-03-04T20:04:15.433Z,0.28
2023-03-04T20:06:49.202Z,0.21
2023-03-04T20:09:20.814Z,0.24
2023-03-04T20:11:58.774Z,0.18
2023-03-04T20:14:32.717Z,0.17
2023-03-04T20:17:07.035Z,0.08
2023-03-04T20:19:38.813Z,0.12
2023-03-04T20:22:11.113Z,0.23
2023-03-04T20:24:42.971Z,0.24
2023-03-04T20:27:15.512Z,0.30
2023-03-04T20:29:49.210Z,0.25
2023-03-04T20:32:21.377Z,0.28
2023-03-04T20:34:57.001Z,0.19
2023-03-04T20:37:28.722Z,0.36
2023-03-04T20:40:00.314Z,0.39
2023-03-04T20:42:32.249Z,0.41
2023-03-04T20:45:04.926Z,0.30
2023-03-04T20:47:39.631Z,0.38
2023-03-04T20:50:12.792Z,0.35
2023-03-04T20:52:46.003Z,0.31
2023-03-04T20:55:17.963Z,0.37
2023-03-04T20:57:49.507Z,0.31
2023-03-04T21:00:21.391Z,0.40
2023-03-04T21:02:52.885Z,0.34
2023-03-04T21:05:24.346Z,0.32
2023-03-04T21:07:55.993Z,0.36
2023-03-04T21:10:28.015Z,0.35
2023-03-04T21:12:59.582Z,0.39
2023-03-04T21:15:31.542Z,0.38
2023-03-04T21:18:03.304Z,0.48
2023-03-04T21:20:34.860Z,0.53
2023-03-04T21:23:06.591Z,0.50
2023-03-04T21:25:38.083Z,0.46
2023-03-04T21:28:09.503Z,0.46
2023-03-04T21:30:41.606Z,0.42
2023-03-04T21:33:18.745Z,0.26
2023-03-04T21:35:50.455Z,0.23
2023-03-04T21:38:21.968Z,0.27
2023-03-04T21:40:53.531Z,0.27
2023-03-04T21:43:25.023Z,0.28
2023-03-04T21:45:58.563Z,0.37
2023-03-04T21:48:30.071Z,0.31
2023-03-04T21:51:07.162Z,0.18
2023-03-04T21:53:39.543Z,0.03
2023-03-04T21:56:11.704Z,0.12
2023-03-04T21:58:43.231Z,0.13
2023-03-04T22:01:21.367Z,0.16
2023-03-04T22:03:53.606Z,0.31
2023-03-04T22:06:26.656Z,0.19
2023-03-04T22:08:58.517Z,0.11
2023-03-04T22:11:30.724Z,0.06
2023-03-04T22:14:03.188Z,0.03
2023-03-04T22:16:39.841Z,0.03
2023-03-04T22:19:17.090Z,0.11
2023-03-04T22:21:48.652Z,0.22
2023-03-04T22:24:20.918Z,0.24
2023-03-04T22:26:52.452Z,0.29
2023-03-04T22:29:24.146Z,0.13
2023-03-04T22:31:55.803Z,0.06
2023-03-04T22:34:27.438Z,0.12
2023-03-04T22:36:59.071Z,0.09
2023-03-04T22:39:30.637Z,0.05
2023-03-04T22:42:02.225Z,0.16
2023-03-04T22:44:34.579Z,0.23
2023-03-04T22:47:06.048Z,0.23
2023-03-04T22:49:39.646Z,0.20
2023-03-04T22:52:11.143Z,0.24
2023-03-04T22:54:42.673Z,0.17
2023-03-04T22:57:14.176Z,0.07
2023-03-04T22:59:45.652Z,0.19
2023-03-04T23:02:17.481Z,0.24
2023-03-04T23:04:49.003Z,0.33
2023-03-04T23:07:20.516Z,0.35
2023-03-04T23:09:51.967Z,0.42
2023-03-04T23:12:23.620Z,0.53
2023-03-04T23:14:55.183Z,0.55
2023-03-04T23:17:26.882Z,0.57
2023-03-04T23:19:58.371Z,0.61
2023-03-04T23:22:30.412Z,0.63
2023-03-04T23:25:01.860Z,0.59
2023-03-04T23:27:33.406Z,0.54
2023-03-04T23:30:07.512Z,0.60
2023-03-04T23:32:39.051Z,0.65
2023-03-04T23:35:11.037Z,0.59
2023-03-04T23:37:42.617Z,0.63
2023-03-04T23:40:14.144Z,0.66
2023-03-04T23:42:45.841Z,0.54
2023-03-04T23:45:17.497Z,0.55
2023-03-04T23:47:49.075Z,0.36
2023-03-04T23:50:20.654Z,0.39
2023-03-04T23:52:52.285Z,0.30
2023-03-04T23:55:23.833Z,0.40
2023-03-04T23:57:55.358Z,0.43
